sensor_id;sensor_type;location;lat;lon;timestamp;pressure;altitude;pressure_sealevel;temperature;humidity
56600;BME280;51832;48.152;11.530;2022-11-04T00:02:43;94554.50;;;14.08;65.37
56600;BME280;51832;48.152;11.530;2022-11-04T00:07:43;94570.91;;;13.65;66.36
56600;BME280;51832;48.152;11.530;2022-11-04T00:13:02;94559.00;;;13.87;65.62
56600;BME280;51832;48.152;11.530;2022-11-04T00:18:03;94588.13;;;14.13;64.46
56600;BME280;51832;48.152;11.530;2022-11-04T00:23:03;94585.69;;;13.81;64.89
56600;BME280;51832;48.152;11.530;2022-11-04T00:28:22;94601.31;;;13.77;64.77
56600;BME280;51832;48.152;11.530;2022-11-04T00:33:41;94590.69;;;13.67;65.17
56600;BME280;51832;48.152;11.530;2022-11-04T00:38:41;94618.72;;;13.58;65.39
56600;BME280;51832;48.152;11.530;2022-11-04T00:43:42;94620.88;;;13.86;64.58
56600;BME280;51832;48.152;11.530;2022-11-04T00:48:42;94612.41;;;13.64;64.85
56600;BME280;51832;48.152;11.530;2022-11-04T00:53:43;94622.38;;;13.47;65.23
56600;BME280;51832;48.152;11.530;2022-11-04T00:58:44;94656.91;;;13.30;66.10
56600;BME280;51832;48.152;11.530;2022-11-04T01:03:46;94656.13;;;13.25;67.58
56600;BME280;51832;48.152;11.530;2022-11-04T01:08:48;94641.63;;;12.90;69.74
56600;BME280;51832;48.152;11.530;2022-11-04T01:13:51;94674.16;;;12.59;70.91
56600;BME280;51832;48.152;11.530;2022-11-04T01:18:52;94667.25;;;12.90;70.98
56600;BME280;51832;48.152;11.530;2022-11-04T01:23:52;94651.88;;;12.81;71.10
56600;BME280;51832;48.152;11.530;2022-11-04T01:28:54;94687.63;;;11.98;73.01
56600;BME280;51832;48.152;11.530;2022-11-04T01:33:56;94663.00;;;12.20;73.45
56600;BME280;51832;48.152;11.530;2022-11-04T01:38:57;94645.41;;;12.57;71.80
56600;BME280;51832;48.152;11.530;2022-11-04T01:44:02;94648.75;;;12.48;71.76
56600;BME280;51832;48.152;11.530;2022-11-04T01:49:25;94636.28;;;12.38;72.02
56600;BME280;51832;48.152;11.530;2022-11-04T01:54:28;94614.94;;;12.87;70.24
56600;BME280;51832;48.152;11.530;2022-11-04T01:59:34;94632.88;;;12.42;71.16
56600;BME280;51832;48.152;11.530;2022-11-04T02:04:37;94616.34;;;12.20;71.33
56600;BME280;51832;48.152;11.530;2022-11-04T02:09:39;94609.69;;;12.50;70.07
56600;BME280;51832;48.152;11.530;2022-11-04T02:14:41;94599.66;;;12.46;69.72
56600;BME280;51832;48.152;11.530;2022-11-04T02:20:10;94615.09;;;12.65;68.59
56600;BME280;51832;48.152;11.530;2022-11-04T02:25:39;94607.13;;;12.60;68.46
56600;BME280;51832;48.152;11.530;2022-11-04T02:30:51;94609.66;;;12.81;68.12
56600;BME280;51832;48.152;11.530;2022-11-04T02:36:05;94622.97;;;13.12;66.31
56600;BME280;51832;48.152;11.530;2022-11-04T02:47:06;94628.66;;;12.84;66.68
56600;BME280;51832;48.152;11.530;2022-11-04T02:52:11;94635.22;;;12.76;66.51
56600;BME280;51832;48.152;11.530;2022-11-04T02:57:16;94628.22;;;12.60;66.78
56600;BME280;51832;48.152;11.530;2022-11-04T03:02:25;94632.22;;;12.62;66.45
56600;BME280;51832;48.152;11.530;2022-11-04T03:07:31;94611.69;;;12.69;66.29
56600;BME280;51832;48.152;11.530;2022-11-04T03:12:39;94605.31;;;12.65;66.22
56600;BME280;51832;48.152;11.530;2022-11-04T03:17:49;94609.16;;;12.48;65.93
56600;BME280;51832;48.152;11.530;2022-11-04T03:22:53;94603.47;;;12.66;64.97
56600;BME280;51832;48.152;11.530;2022-11-04T03:38:19;94607.22;;;12.70;64.29
56600;BME280;51832;48.152;11.530;2022-11-04T03:43:23;94609.97;;;12.95;63.87
56600;BME280;51832;48.152;11.530;2022-11-04T03:48:27;94599.81;;;12.72;64.30
56600;BME280;51832;48.152;11.530;2022-11-04T03:53:29;94607.06;;;12.50;64.99
56600;BME280;51832;48.152;11.530;2022-11-04T03:58:48;94602.84;;;12.49;64.01
56600;BME280;51832;48.152;11.530;2022-11-04T04:04:13;94589.00;;;12.73;63.35
56600;BME280;51832;48.152;11.530;2022-11-04T04:09:41;94594.31;;;12.36;64.05
56600;BME280;51832;48.152;11.530;2022-11-04T04:14:59;94578.63;;;12.20;64.36
56600;BME280;51832;48.152;11.530;2022-11-04T04:20:11;94588.19;;;12.31;63.86
56600;BME280;51832;48.152;11.530;2022-11-04T04:25:14;94592.94;;;11.97;64.47
56600;BME280;51832;48.152;11.530;2022-11-04T04:30:35;94603.81;;;12.00;64.20
56600;BME280;51832;48.152;11.530;2022-11-04T04:35:55;94590.63;;;12.00;63.94
56600;BME280;51832;48.152;11.530;2022-11-04T04:41:02;94592.84;;;12.19;62.66
56600;BME280;51832;48.152;11.530;2022-11-04T04:46:24;94581.72;;;12.49;61.71
56600;BME280;51832;48.152;11.530;2022-11-04T04:51:25;94614.28;;;11.95;63.39
56600;BME280;51832;48.152;11.530;2022-11-04T04:56:25;94613.75;;;11.93;62.89
56600;BME280;51832;48.152;11.530;2022-11-04T05:01:26;94614.91;;;12.07;62.08
56600;BME280;51832;48.152;11.530;2022-11-04T05:06:27;94615.50;;;11.83;63.45
56600;BME280;51832;48.152;11.530;2022-11-04T05:11:27;94605.03;;;11.93;63.48
56600;BME280;51832;48.152;11.530;2022-11-04T05:16:28;94632.25;;;11.98;63.05
56600;BME280;51832;48.152;11.530;2022-11-04T05:21:28;94621.88;;;12.19;62.67
56600;BME280;51832;48.152;11.530;2022-11-04T05:26:29;94595.13;;;12.05;62.70
56600;BME280;51832;48.152;11.530;2022-11-04T05:31:29;94603.56;;;12.07;62.47
56600;BME280;51832;48.152;11.530;2022-11-04T05:36:31;94595.50;;;12.19;61.91
56600;BME280;51832;48.152;11.530;2022-11-04T05:41:36;94616.25;;;12.10;63.06
56600;BME280;51832;48.152;11.530;2022-11-04T05:46:36;94620.03;;;11.65;64.44
56600;BME280;51832;48.152;11.530;2022-11-04T05:51:36;94624.28;;;11.23;65.97
56600;BME280;51832;48.152;11.530;2022-11-04T05:56:37;94625.16;;;11.28;66.23
56600;BME280;51832;48.152;11.530;2022-11-04T06:01:39;94653.25;;;11.01;67.62
56600;BME280;51832;48.152;11.530;2022-11-04T06:06:40;94642.25;;;11.26;69.08
56600;BME280;51832;48.152;11.530;2022-11-04T06:11:41;94625.84;;;10.80;71.94
56600;BME280;51832;48.152;11.530;2022-11-04T06:16:41;94641.19;;;10.66;72.64
56600;BME280;51832;48.152;11.530;2022-11-04T06:21:42;94639.28;;;10.79;72.95
56600;BME280;51832;48.152;11.530;2022-11-04T06:26:42;94633.13;;;11.12;72.00
56600;BME280;51832;48.152;11.530;2022-11-04T06:31:42;94629.75;;;11.16;72.46
56600;BME280;51832;48.152;11.530;2022-11-04T06:36:43;94634.81;;;10.79;73.75
56600;BME280;51832;48.152;11.530;2022-11-04T06:41:43;94654.75;;;10.75;74.58
56600;BME280;51832;48.152;11.530;2022-11-04T06:46:44;94664.84;;;10.83;74.28
56600;BME280;51832;48.152;11.530;2022-11-04T06:51:45;94657.44;;;10.80;75.13
56600;BME280;51832;48.152;11.530;2022-11-04T06:56:46;94665.13;;;11.03;74.52
56600;BME280;51832;48.152;11.530;2022-11-04T07:01:48;94639.06;;;11.02;75.00
56600;BME280;51832;48.152;11.530;2022-11-04T07:06:49;94639.91;;;11.08;75.32
56600;BME280;51832;48.152;11.530;2022-11-04T07:11:49;94628.44;;;10.75;76.88
56600;BME280;51832;48.152;11.530;2022-11-04T07:16:50;94649.16;;;10.72;77.30
56600;BME280;51832;48.152;11.530;2022-11-04T07:21:50;94661.41;;;10.83;78.09
56600;BME280;51832;48.152;11.530;2022-11-04T07:26:53;94666.41;;;10.62;77.46
56600;BME280;51832;48.152;11.530;2022-11-04T07:31:54;94687.72;;;10.99;76.62
56600;BME280;51832;48.152;11.530;2022-11-04T07:36:54;94708.41;;;10.91;75.45
56600;BME280;51832;48.152;11.530;2022-11-04T07:41:55;94683.69;;;11.14;75.30
56600;BME280;51832;48.152;11.530;2022-11-04T07:46:56;94684.63;;;11.24;74.72
56600;BME280;51832;48.152;11.530;2022-11-04T07:51:56;94693.03;;;11.43;73.98
56600;BME280;51832;48.152;11.530;2022-11-04T07:56:57;94716.63;;;11.55;73.50
56600;BME280;51832;48.152;11.530;2022-11-04T08:01:57;94716.06;;;11.53;73.19
56600;BME280;51832;48.152;11.530;2022-11-04T08:06:58;94701.66;;;11.60;72.88
56600;BME280;51832;48.152;11.530;2022-11-04T08:11:58;94694.63;;;11.44;71.61
56600;BME280;51832;48.152;11.530;2022-11-04T08:16:59;94682.81;;;11.08;72.99
56600;BME280;51832;48.152;11.530;2022-11-04T08:21:59;94679.97;;;11.31;73.70
56600;BME280;51832;48.152;11.530;2022-11-04T08:27:00;94667.53;;;11.49;72.49
56600;BME280;51832;48.152;11.530;2022-11-04T08:32:01;94650.16;;;10.65;73.66
56600;BME280;51832;48.152;11.530;2022-11-04T08:37:01;94650.59;;;10.79;75.18
56600;BME280;51832;48.152;11.530;2022-11-04T08:42:02;94651.66;;;11.00;73.72
56600;BME280;51832;48.152;11.530;2022-11-04T08:47:02;94649.16;;;10.72;73.97
56600;BME280;51832;48.152;11.530;2022-11-04T08:52:03;94636.34;;;10.97;73.71
56600;BME280;51832;48.152;11.530;2022-11-04T08:57:05;94614.69;;;10.90;73.25
56600;BME280;51832;48.152;11.530;2022-11-04T09:02:05;94629.81;;;11.21;72.41
56600;BME280;51832;48.152;11.530;2022-11-04T09:07:06;94621.66;;;11.23;73.27
56600;BME280;51832;48.152;11.530;2022-11-04T09:12:10;94624.66;;;11.10;73.57
56600;BME280;51832;48.152;11.530;2022-11-04T09:17:10;94609.78;;;10.98;73.84
56600;BME280;51832;48.152;11.530;2022-11-04T09:22:11;94619.19;;;10.94;74.64
56600;BME280;51832;48.152;11.530;2022-11-04T09:27:11;94627.41;;;10.59;75.97
56600;BME280;51832;48.152;11.530;2022-11-04T09:32:12;94610.25;;;10.95;75.43
56600;BME280;51832;48.152;11.530;2022-11-04T09:37:12;94616.25;;;11.34;74.08
56600;BME280;51832;48.152;11.530;2022-11-04T09:47:41;94644.44;;;11.12;75.45
56600;BME280;51832;48.152;11.530;2022-11-04T09:52:45;94647.13;;;10.23;74.46
56600;BME280;51832;48.152;11.530;2022-11-04T09:57:53;94636.91;;;10.44;72.75
56600;BME280;51832;48.152;11.530;2022-11-04T10:08:34;94611.75;;;10.86;72.25
56600;BME280;51832;48.152;11.530;2022-11-04T10:24:40;94611.78;;;11.57;72.31
56600;BME280;51832;48.152;11.530;2022-11-04T10:29:48;94603.41;;;11.38;72.72
56600;BME280;51832;48.152;11.530;2022-11-04T10:35:01;94593.38;;;11.62;72.25
56600;BME280;51832;48.152;11.530;2022-11-04T10:40:23;94573.44;;;11.17;72.70
56600;BME280;51832;48.152;11.530;2022-11-04T10:45:47;94560.63;;;11.53;71.11
56600;BME280;51832;48.152;11.530;2022-11-04T10:50:57;94563.50;;;11.51;71.41
56600;BME280;51832;48.152;11.530;2022-11-04T10:56:17;94572.81;;;11.59;71.25
56600;BME280;51832;48.152;11.530;2022-11-04T11:06:32;94571.94;;;12.07;70.53
56600;BME280;51832;48.152;11.530;2022-11-04T11:11:42;94576.59;;;12.32;69.54
56600;BME280;51832;48.152;11.530;2022-11-04T11:16:46;94580.38;;;12.46;69.19
56600;BME280;51832;48.152;11.530;2022-11-04T11:21:53;94582.59;;;11.90;70.63
56600;BME280;51832;48.152;11.530;2022-11-04T11:26:55;94594.72;;;11.64;69.64
56600;BME280;51832;48.152;11.530;2022-11-04T11:31:58;94600.00;;;11.64;69.29
56600;BME280;51832;48.152;11.530;2022-11-04T11:37:00;94601.41;;;11.72;69.59
56600;BME280;51832;48.152;11.530;2022-11-04T11:42:06;94601.91;;;11.96;69.19
56600;BME280;51832;48.152;11.530;2022-11-04T11:52:34;94613.34;;;11.80;69.23
56600;BME280;51832;48.152;11.530;2022-11-04T11:57:39;94607.31;;;11.57;70.83
56600;BME280;51832;48.152;11.530;2022-11-04T12:02:59;94604.47;;;11.64;71.65
56600;BME280;51832;48.152;11.530;2022-11-04T12:08:14;94615.34;;;11.46;72.16
56600;BME280;51832;48.152;11.530;2022-11-04T12:13:49;94615.59;;;11.22;72.78
56600;BME280;51832;48.152;11.530;2022-11-04T12:40:19;94570.03;;;11.97;69.92
56600;BME280;51832;48.152;11.530;2022-11-04T12:45:42;94589.56;;;11.74;68.03
56600;BME280;51832;48.152;11.530;2022-11-04T12:50:57;94622.22;;;11.25;71.54
56600;BME280;51832;48.152;11.530;2022-11-04T12:56:09;94638.88;;;11.09;72.44
56600;BME280;51832;48.152;11.530;2022-11-04T13:11:53;94630.72;;;10.50;73.57
56600;BME280;51832;48.152;11.530;2022-11-04T13:17:03;94641.38;;;10.60;73.78
56600;BME280;51832;48.152;11.530;2022-11-04T13:22:10;94640.91;;;10.63;73.98
56600;BME280;51832;48.152;11.530;2022-11-04T13:27:25;94648.66;;;10.36;74.55
56600;BME280;51832;48.152;11.530;2022-11-04T13:32:34;94652.91;;;10.76;73.61
56600;BME280;51832;48.152;11.530;2022-11-04T13:37:46;94655.78;;;11.13;72.65
56600;BME280;51832;48.152;11.530;2022-11-04T13:47:54;94661.53;;;11.10;72.19
56600;BME280;51832;48.152;11.530;2022-11-04T13:52:56;94661.03;;;11.56;71.48
56600;BME280;51832;48.152;11.530;2022-11-04T13:57:59;94657.41;;;11.84;69.56
56600;BME280;51832;48.152;11.530;2022-11-04T14:08:25;94651.47;;;11.50;71.89
56600;BME280;51832;48.152;11.530;2022-11-04T14:23:32;94668.16;;;12.04;70.33
56600;BME280;51832;48.152;11.530;2022-11-04T14:28:33;94660.50;;;12.30;69.53
56600;BME280;51832;48.152;11.530;2022-11-04T14:33:40;94649.34;;;12.23;68.96
56600;BME280;51832;48.152;11.530;2022-11-04T14:43:53;94648.41;;;12.07;68.95
56600;BME280;51832;48.152;11.530;2022-11-04T14:48:56;94652.81;;;11.09;70.13
56600;BME280;51832;48.152;11.530;2022-11-04T14:54:18;94645.16;;;11.08;69.22
56600;BME280;51832;48.152;11.530;2022-11-04T14:59:26;94648.91;;;11.12;69.91
56600;BME280;51832;48.152;11.530;2022-11-04T15:04:28;94652.22;;;10.63;69.76
56600;BME280;51832;48.152;11.530;2022-11-04T15:09:34;94655.47;;;10.71;67.32
56600;BME280;51832;48.152;11.530;2022-11-04T15:14:38;94656.41;;;10.81;69.21
56600;BME280;51832;48.152;11.530;2022-11-04T15:19:39;94663.22;;;10.60;69.86
56600;BME280;51832;48.152;11.530;2022-11-04T15:24:41;94680.03;;;10.76;68.80
56600;BME280;51832;48.152;11.530;2022-11-04T15:29:57;94665.84;;;10.60;68.89
56600;BME280;51832;48.152;11.530;2022-11-04T15:34:58;94679.78;;;10.44;69.00
56600;BME280;51832;48.152;11.530;2022-11-04T15:39:58;94671.09;;;10.77;68.05
56600;BME280;51832;48.152;11.530;2022-11-04T15:45:27;94678.00;;;11.22;66.52
56600;BME280;51832;48.152;11.530;2022-11-04T15:50:29;94692.53;;;10.52;68.50
56600;BME280;51832;48.152;11.530;2022-11-04T15:55:30;94691.69;;;10.47;69.00
56600;BME280;51832;48.152;11.530;2022-11-04T16:00:31;94690.06;;;10.29;69.78
56600;BME280;51832;48.152;11.530;2022-11-04T16:05:34;94684.66;;;10.19;68.91
56600;BME280;51832;48.152;11.530;2022-11-04T16:10:39;94681.09;;;10.13;69.35
56600;BME280;51832;48.152;11.530;2022-11-04T16:15:46;94681.88;;;10.59;67.57
56600;BME280;51832;48.152;11.530;2022-11-04T16:20:47;94678.97;;;10.10;69.20
56600;BME280;51832;48.152;11.530;2022-11-04T16:26:00;94680.28;;;10.24;68.82
56600;BME280;51832;48.152;11.530;2022-11-04T16:31:22;94688.00;;;10.48;67.55
56600;BME280;51832;48.152;11.530;2022-11-04T16:36:24;94692.63;;;10.24;67.53
56600;BME280;51832;48.152;11.530;2022-11-04T16:41:26;94698.47;;;10.14;68.30
56600;BME280;51832;48.152;11.530;2022-11-04T16:46:27;94712.88;;;10.23;67.72
56600;BME280;51832;48.152;11.530;2022-11-04T16:51:29;94699.81;;;10.45;67.23
56600;BME280;51832;48.152;11.530;2022-11-04T16:56:32;94711.84;;;10.24;67.74
56600;BME280;51832;48.152;11.530;2022-11-04T17:01:33;94726.75;;;9.79;69.04
56600;BME280;51832;48.152;11.530;2022-11-04T17:06:34;94729.13;;;10.09;68.23
56600;BME280;51832;48.152;11.530;2022-11-04T17:11:34;94735.25;;;10.14;68.34
56600;BME280;51832;48.152;11.530;2022-11-04T17:16:34;94740.34;;;10.04;68.33
56600;BME280;51832;48.152;11.530;2022-11-04T17:21:35;94735.69;;;9.66;69.12
56600;BME280;51832;48.152;11.530;2022-11-04T17:26:35;94741.69;;;10.18;67.72
56600;BME280;51832;48.152;11.530;2022-11-04T17:31:36;94751.59;;;10.16;68.37
56600;BME280;51832;48.152;11.530;2022-11-04T17:36:36;94756.94;;;10.33;67.78
56600;BME280;51832;48.152;11.530;2022-11-04T17:41:37;94752.06;;;10.42;67.87
56600;BME280;51832;48.152;11.530;2022-11-04T17:46:56;94759.78;;;10.31;68.79
56600;BME280;51832;48.152;11.530;2022-11-04T17:51:59;94761.19;;;10.51;67.53
56600;BME280;51832;48.152;11.530;2022-11-04T17:57:00;94766.66;;;10.32;67.58
56600;BME280;51832;48.152;11.530;2022-11-04T18:02:00;94764.91;;;10.55;67.12
56600;BME280;51832;48.152;11.530;2022-11-04T18:07:01;94769.31;;;10.66;66.46
56600;BME280;51832;48.152;11.530;2022-11-04T18:12:03;94778.09;;;10.72;66.10
56600;BME280;51832;48.152;11.530;2022-11-04T18:17:22;94788.09;;;10.41;66.94
56600;BME280;51832;48.152;11.530;2022-11-04T18:22:24;94796.66;;;10.48;66.21
56600;BME280;51832;48.152;11.530;2022-11-04T18:27:24;94804.38;;;10.26;66.58
56600;BME280;51832;48.152;11.530;2022-11-04T18:32:24;94801.16;;;10.36;66.22
56600;BME280;51832;48.152;11.530;2022-11-04T18:37:25;94812.66;;;10.18;65.94
56600;BME280;51832;48.152;11.530;2022-11-04T18:42:26;94824.78;;;10.48;65.12
56600;BME280;51832;48.152;11.530;2022-11-04T18:47:27;94816.31;;;10.46;65.87
56600;BME280;51832;48.152;11.530;2022-11-04T18:52:27;94818.25;;;10.22;66.07
56600;BME280;51832;48.152;11.530;2022-11-04T18:57:28;94823.81;;;10.25;65.96
56600;BME280;51832;48.152;11.530;2022-11-04T19:02:28;94837.66;;;10.32;66.41
56600;BME280;51832;48.152;11.530;2022-11-04T19:07:31;94836.63;;;10.33;66.28
56600;BME280;51832;48.152;11.530;2022-11-04T19:12:31;94849.16;;;9.91;67.46
56600;BME280;51832;48.152;11.530;2022-11-04T19:17:49;94857.59;;;10.05;67.71
56600;BME280;51832;48.152;11.530;2022-11-04T19:22:50;94869.59;;;10.24;66.78
56600;BME280;51832;48.152;11.530;2022-11-04T19:27:50;94878.66;;;9.93;67.52
56600;BME280;51832;48.152;11.530;2022-11-04T19:32:51;94883.19;;;9.98;68.22
56600;BME280;51832;48.152;11.530;2022-11-04T19:37:51;94886.41;;;9.88;68.39
56600;BME280;51832;48.152;11.530;2022-11-04T19:42:51;94894.06;;;9.90;67.85
56600;BME280;51832;48.152;11.530;2022-11-04T19:48:11;94895.56;;;9.97;67.81
56600;BME280;51832;48.152;11.530;2022-11-04T19:53:11;94906.63;;;10.11;67.09
56600;BME280;51832;48.152;11.530;2022-11-04T19:58:12;94914.06;;;9.91;67.85
56600;BME280;51832;48.152;11.530;2022-11-04T20:03:13;94913.84;;;9.46;69.97
56600;BME280;51832;48.152;11.530;2022-11-04T20:08:13;94932.19;;;9.34;69.72
56600;BME280;51832;48.152;11.530;2022-11-04T20:13:16;94934.00;;;9.22;70.44
56600;BME280;51832;48.152;11.530;2022-11-04T20:18:36;94937.47;;;8.93;71.43
56600;BME280;51832;48.152;11.530;2022-11-04T20:23:36;94940.72;;;9.06;70.71
56600;BME280;51832;48.152;11.530;2022-11-04T20:28:37;94941.81;;;9.29;70.00
56600;BME280;51832;48.152;11.530;2022-11-04T20:33:38;94953.06;;;9.17;70.27
56600;BME280;51832;48.152;11.530;2022-11-04T20:38:39;94960.25;;;9.10;70.69
56600;BME280;51832;48.152;11.530;2022-11-04T20:43:39;94969.09;;;9.39;69.69
56600;BME280;51832;48.152;11.530;2022-11-04T20:48:40;94974.88;;;9.30;70.25
56600;BME280;51832;48.152;11.530;2022-11-04T20:53:41;94973.44;;;9.04;70.47
56600;BME280;51832;48.152;11.530;2022-11-04T20:58:43;94989.31;;;9.39;68.74
56600;BME280;51832;48.152;11.530;2022-11-04T21:03:43;94991.09;;;9.26;69.66
56600;BME280;51832;48.152;11.530;2022-11-04T21:08:44;94981.00;;;9.12;70.18
56600;BME280;51832;48.152;11.530;2022-11-04T21:13:45;94999.38;;;9.12;69.11
56600;BME280;51832;48.152;11.530;2022-11-04T21:18:45;95000.34;;;8.69;70.02
56600;BME280;51832;48.152;11.530;2022-11-04T21:23:45;95005.00;;;8.67;71.58
56600;BME280;51832;48.152;11.530;2022-11-04T21:28:46;95010.88;;;8.81;70.25
56600;BME280;51832;48.152;11.530;2022-11-04T21:33:48;95017.31;;;8.48;70.96
56600;BME280;51832;48.152;11.530;2022-11-04T21:38:48;95020.69;;;8.74;70.29
56600;BME280;51832;48.152;11.530;2022-11-04T21:43:56;95017.41;;;9.08;69.55
56600;BME280;51832;48.152;11.530;2022-11-04T21:48:56;95020.81;;;9.09;69.58
56600;BME280;51832;48.152;11.530;2022-11-04T21:53:58;95017.19;;;9.51;68.61
56600;BME280;51832;48.152;11.530;2022-11-04T21:58:59;95013.28;;;9.42;67.99
56600;BME280;51832;48.152;11.530;2022-11-04T22:04:01;95010.38;;;9.32;68.78
56600;BME280;51832;48.152;11.530;2022-11-04T22:09:04;95008.47;;;9.27;68.64
56600;BME280;51832;48.152;11.530;2022-11-04T22:14:05;95014.44;;;9.16;69.60
56600;BME280;51832;48.152;11.530;2022-11-04T22:19:09;95025.59;;;8.82;71.11
56600;BME280;51832;48.152;11.530;2022-11-04T22:24:11;95027.38;;;8.88;70.41
56600;BME280;51832;48.152;11.530;2022-11-04T22:29:12;95024.03;;;9.11;69.79
56600;BME280;51832;48.152;11.530;2022-11-04T22:34:13;95029.81;;;9.01;71.19
56600;BME280;51832;48.152;11.530;2022-11-04T22:39:13;95040.00;;;9.09;70.57
56600;BME280;51832;48.152;11.530;2022-11-04T22:44:14;95042.78;;;8.96;70.79
56600;BME280;51832;48.152;11.530;2022-11-04T22:49:14;95034.25;;;9.01;70.91
56600;BME280;51832;48.152;11.530;2022-11-04T22:54:14;95035.72;;;9.26;70.35
56600;BME280;51832;48.152;11.530;2022-11-04T22:59:15;95051.66;;;9.13;70.65
56600;BME280;51832;48.152;11.530;2022-11-04T23:04:16;95056.63;;;9.03;71.07
56600;BME280;51832;48.152;11.530;2022-11-04T23:09:16;95072.44;;;9.15;70.64
56600;BME280;51832;48.152;11.530;2022-11-04T23:14:18;95064.44;;;9.40;70.64
56600;BME280;51832;48.152;11.530;2022-11-04T23:19:38;95056.88;;;9.43;69.02
56600;BME280;51832;48.152;11.530;2022-11-04T23:24:38;95074.13;;;9.39;69.80
56600;BME280;51832;48.152;11.530;2022-11-04T23:29:59;95076.78;;;9.21;70.56
56600;BME280;51832;48.152;11.530;2022-11-04T23:35:19;95072.09;;;9.41;70.44
56600;BME280;51832;48.152;11.530;2022-11-04T23:40:39;95073.22;;;9.45;69.72
56600;BME280;51832;48.152;11.530;2022-11-04T23:45:39;95070.75;;;9.62;70.36
56600;BME280;51832;48.152;11.530;2022-11-04T23:50:59;95085.75;;;9.73;69.36
56600;BME280;51832;48.152;11.530;2022-11-04T23:56:18;95092.53;;;9.51;70.01
